KSGH/SGH METAR and TAF weather

Enter ICAO airport designator
Station Type Date Time Source
KSGH METAR 2018/12/11 17:56 UTC NOAA

KSGH 111756Z AUTO 24016KT 10SM CLR 02/M04 A3007 RMK AO2 SLP199 T00221039 10028 21083 58031


Station Type Date Time Source
KSGH Decoded METAR 2018/12/11 17:56 UTC NOAA

Springfield, Springfield-Beckley Municipal Airport, OH, United States (KSGH) 39-50-25N 083-50-24W
Dec 11, 2018 - 12:56 PM EST / 2018.12.11 1756 UTC
Wind: from the WSW (240 degrees) at 18 MPH (16 KT):0
Visibility: 10 mile(s):0
Sky conditions: clear
Temperature: 36.0 F (2.2 C)
Dew Point: 25.0 F (-3.9 C)
Relative Humidity: 63%
Pressure (altimeter): 30.07 in. Hg (1018 hPa)
Pressure tendency: 0.09 inches (3.1 hPa) lower than three hours ago
ob: KSGH 111756Z AUTO 24016KT 10SM CLR 02/M04 A3007 RMK AO2 SLP199 T00221039 10028 21083 58031
cycle: 18

Station Type Date Time Source
KSGH TAF UTC NOAA

Error!


Example: see airport list